createdAt,value
2022-10-13T00:00:31.439Z,6.07
2022-10-13T00:03:01.914Z,4.33
2022-10-13T00:05:30.297Z,4.88
2022-10-13T00:07:57.342Z,5.43
2022-10-13T00:10:24.613Z,6.13
2022-10-13T00:12:51.920Z,5.03
2022-10-13T00:15:22.018Z,5.50
2022-10-13T00:17:48.542Z,5.28
2022-10-13T00:20:15.026Z,4.75
2022-10-13T00:22:41.637Z,5.85
2022-10-13T00:25:08.490Z,5.13
2022-10-13T00:27:35.029Z,4.70
2022-10-13T00:30:01.756Z,5.10
2022-10-13T00:32:29.417Z,4.75
2022-10-13T00:34:56.115Z,4.88
2022-10-13T00:37:22.658Z,5.35
2022-10-13T00:39:49.144Z,6.50
2022-10-13T00:42:17.644Z,5.38
2022-10-13T00:45:02.759Z,5.40
2022-10-13T00:47:36.176Z,4.80
2022-10-13T00:50:03.873Z,5.68
2022-10-13T00:52:31.491Z,6.43
2022-10-13T00:54:59.196Z,6.82
2022-10-13T00:57:26.204Z,5.90
2022-10-13T00:59:52.821Z,6.05
2022-10-13T01:02:19.671Z,6.53
2022-10-13T01:04:51.406Z,7.18
2022-10-13T01:07:19.034Z,6.63
2022-10-13T01:09:45.510Z,5.68
2022-10-13T01:12:30.180Z,6.20
2022-10-13T01:15:15.571Z,6.55
2022-10-13T01:18:07.187Z,5.57
2022-10-13T01:20:52.926Z,7.20
2022-10-13T01:23:41.209Z,6.78
2022-10-13T01:26:22.850Z,6.80
2022-10-13T01:29:21.749Z,7.10
2022-10-13T01:32:45.182Z,8.30
2022-10-13T01:35:33.428Z,6.22
2022-10-13T01:38:20.931Z,5.75
2022-10-13T01:41:28.631Z,7.30
2022-10-13T01:44:05.771Z,5.97
2022-10-13T01:46:39.478Z,6.20
2022-10-13T01:49:10.789Z,6.07
2022-10-13T01:51:38.909Z,5.85
2022-10-13T01:56:32.106Z,5.97
2022-10-13T01:59:01.724Z,6.05
2022-10-13T02:02:06.152Z,5.97
2022-10-13T02:04:54.172Z,5.63
2022-10-13T02:07:35.596Z,6.55
2022-10-13T02:10:11.001Z,6.68
2022-10-13T02:12:56.555Z,5.93
2022-10-13T02:15:28.589Z,5.80
2022-10-13T02:17:58.589Z,5.88
2022-10-13T02:20:25.205Z,5.53
2022-10-13T02:23:00.368Z,7.25
2022-10-13T02:25:28.917Z,9.40
2022-10-13T02:28:00.461Z,9.55
2022-10-13T02:30:31.274Z,8.05
2022-10-13T02:32:57.873Z,7.40
2022-10-13T02:35:29.680Z,7.20
2022-10-13T02:38:01.762Z,7.57
2022-10-13T02:40:31.387Z,8.38
2022-10-13T02:42:58.078Z,9.60
2022-10-13T02:45:24.574Z,7.30
2022-10-13T02:47:55.692Z,7.07
2022-10-13T02:50:22.308Z,7.40
2022-10-13T02:52:50.358Z,7.65
2022-10-13T02:55:17.046Z,6.45
2022-10-13T02:57:45.905Z,7.28
2022-10-13T03:00:13.331Z,6.63
2022-10-13T03:02:40.005Z,6.40
2022-10-13T03:05:06.790Z,5.72
2022-10-13T03:07:33.397Z,6.55
2022-10-13T03:09:59.928Z,6.38
2022-10-13T03:12:26.387Z,5.22
2022-10-13T03:14:52.868Z,5.80
2022-10-13T03:17:19.615Z,5.38
2022-10-13T03:19:46.219Z,6.18
2022-10-13T03:22:16.779Z,6.82
2022-10-13T03:24:43.426Z,4.95
2022-10-13T03:27:09.898Z,6.47
2022-10-13T03:29:36.499Z,6.63
2022-10-13T03:32:03.344Z,6.22
2022-10-13T03:34:30.038Z,5.53
2022-10-13T03:36:57.567Z,5.45
2022-10-13T03:39:24.138Z,5.07
2022-10-13T03:41:50.578Z,5.75
2022-10-13T03:44:17.092Z,5.47
2022-10-13T03:46:43.683Z,5.50
2022-10-13T03:49:11.555Z,5.00
2022-10-13T03:51:38.715Z,5.18
2022-10-13T03:54:05.262Z,5.60
2022-10-13T03:56:31.790Z,5.07
2022-10-13T03:59:00.178Z,6.15
2022-10-13T04:01:29.470Z,4.93
2022-10-13T04:03:56.966Z,6.13
2022-10-13T04:06:24.457Z,5.93
2022-10-13T04:08:51.234Z,5.43
2022-10-13T04:11:18.714Z,5.25
2022-10-13T04:13:50.724Z,4.78
2022-10-13T04:16:22.981Z,4.70
2022-10-13T04:19:04.318Z,5.15
2022-10-13T04:21:32.560Z,5.20
2022-10-13T04:24:00.436Z,5.25
2022-10-13T04:26:29.093Z,5.00
2022-10-13T04:28:56.525Z,5.60
2022-10-13T04:31:23.611Z,4.97
2022-10-13T04:33:51.243Z,5.05
2022-10-13T04:36:18.639Z,4.15
2022-10-13T04:38:46.291Z,4.72
2022-10-13T04:41:14.869Z,4.75
2022-10-13T04:43:41.737Z,5.03
2022-10-13T04:46:14.867Z,5.32
2022-10-13T04:48:41.815Z,4.47
2022-10-13T04:51:16.375Z,4.25
2022-10-13T04:53:43.765Z,4.10
2022-10-13T04:56:14.583Z,5.13
2022-10-13T04:58:42.423Z,5.22
2022-10-13T05:01:17.650Z,3.83
2022-10-13T05:03:50.484Z,4.15
2022-10-13T05:06:20.199Z,3.60
2022-10-13T05:08:49.967Z,3.97
2022-10-13T05:11:17.285Z,4.30
2022-10-13T05:13:46.127Z,4.20
2022-10-13T05:16:14.756Z,3.38
2022-10-13T05:18:41.464Z,3.55
2022-10-13T05:21:13.793Z,3.88
2022-10-13T05:23:40.956Z,3.72
2022-10-13T05:26:13.311Z,4.35
2022-10-13T05:28:40.511Z,4.00
2022-10-13T05:31:12.720Z,3.97
2022-10-13T05:33:39.911Z,3.67
2022-10-13T05:36:12.644Z,3.67
2022-10-13T05:38:39.385Z,3.90
2022-10-13T05:41:08.951Z,3.53
2022-10-13T05:43:37.247Z,3.80
2022-10-13T05:46:04.047Z,4.00
2022-10-13T05:48:34.183Z,3.35
2022-10-13T05:51:04.907Z,2.67
2022-10-13T05:53:36.969Z,3.80
2022-10-13T05:56:08.862Z,4.25
2022-10-13T05:58:43.524Z,3.38
2022-10-13T06:01:14.549Z,3.97
2022-10-13T06:03:42.272Z,3.90
2022-10-13T06:06:09.606Z,3.30
2022-10-13T06:08:37.672Z,3.15
2022-10-13T06:11:04.872Z,3.35
2022-10-13T06:13:31.396Z,3.75
2022-10-13T06:15:57.831Z,3.50
2022-10-13T06:18:24.324Z,3.58
2022-10-13T06:20:50.770Z,3.95
2022-10-13T06:23:17.475Z,3.65
2022-10-13T06:25:51.283Z,3.97
2022-10-13T06:28:18.369Z,4.03
2022-10-13T06:30:49.357Z,4.00
2022-10-13T06:33:16.693Z,4.30
2022-10-13T06:35:43.224Z,4.10
2022-10-13T06:38:12.490Z,3.65
2022-10-13T06:40:41.334Z,3.42
2022-10-13T06:43:07.975Z,3.75
2022-10-13T06:45:40.746Z,4.50
2022-10-13T06:48:07.290Z,4.22
2022-10-13T06:50:33.858Z,3.83
2022-10-13T06:53:00.436Z,4.43
2022-10-13T06:55:27.292Z,4.00
2022-10-13T06:57:53.807Z,4.05
2022-10-13T07:00:20.925Z,3.92
2022-10-13T07:02:51.915Z,3.85
2022-10-13T07:05:18.627Z,3.92
2022-10-13T07:07:45.109Z,3.83
2022-10-13T07:10:11.606Z,4.50
2022-10-13T07:12:38.146Z,4.80
2022-10-13T07:15:04.871Z,5.38
2022-10-13T07:17:31.371Z,4.63
2022-10-13T07:19:58.661Z,4.10
2022-10-13T07:22:26.948Z,4.70
2022-10-13T07:24:53.628Z,4.53
2022-10-13T07:27:21.802Z,4.43
2022-10-13T07:29:48.640Z,5.45
2022-10-13T07:32:15.172Z,4.05
2022-10-13T07:34:41.719Z,5.00
2022-10-13T07:37:08.294Z,5.18
2022-10-13T07:39:35.026Z,5.47
2022-10-13T07:42:01.504Z,5.05
2022-10-13T07:44:28.152Z,4.47
2022-10-13T07:46:54.708Z,5.50
2022-10-13T07:49:21.234Z,5.63
2022-10-13T07:51:47.691Z,5.47
2022-10-13T07:54:18.351Z,4.78
2022-10-13T07:56:45.499Z,5.35
2022-10-13T07:59:12.225Z,6.37
2022-10-13T08:01:38.813Z,4.88
2022-10-13T08:04:05.398Z,6.15
2022-10-13T08:06:31.986Z,6.38
2022-10-13T08:08:58.716Z,6.53
2022-10-13T08:11:25.335Z,7.82
2022-10-13T08:13:52.614Z,7.32
2022-10-13T08:16:22.489Z,7.53
2022-10-13T08:18:49.402Z,6.68
2022-10-13T08:21:57.069Z,7.07
2022-10-13T08:24:06.854Z,6.85
2022-10-13T08:26:33.577Z,7.22
2022-10-13T08:29:20.173Z,5.68
2022-10-13T08:31:46.686Z,6.38
2022-10-13T08:34:13.359Z,5.35
2022-10-13T08:36:39.972Z,7.53
2022-10-13T08:39:06.528Z,6.85
2022-10-13T08:41:40.113Z,7.57
2022-10-13T08:47:26.557Z,7.90
2022-10-13T08:49:59.996Z,6.40
2022-10-13T08:52:42.055Z,6.97
2022-10-13T08:55:20.249Z,6.90
2022-10-13T08:57:46.886Z,6.78
2022-10-13T09:00:13.653Z,7.32
2022-10-13T09:02:43.856Z,7.13
2022-10-13T09:05:23.092Z,7.35
2022-10-13T09:10:51.995Z,7.03
2022-10-13T09:13:19.502Z,6.00
2022-10-13T09:15:48.492Z,6.60
2022-10-13T09:18:16.516Z,6.20
2022-10-13T09:20:43.033Z,7.20
2022-10-13T09:23:19.470Z,8.15
2022-10-13T09:25:48.535Z,7.50
2022-10-13T09:28:28.827Z,7.95
2022-10-13T09:31:10.320Z,7.18
2022-10-13T09:33:41.225Z,7.97
2022-10-13T09:36:18.482Z,7.72
2022-10-13T09:39:12.318Z,6.43
2022-10-13T09:41:41.135Z,6.80
2022-10-13T09:44:14.044Z,6.45
2022-10-13T09:46:48.755Z,7.15
2022-10-13T09:49:31.225Z,7.53
2022-10-13T09:52:19.431Z,7.32
2022-10-13T09:54:49.888Z,6.97
2022-10-13T09:57:38.698Z,7.10
2022-10-13T10:00:13.857Z,7.90
2022-10-13T10:02:58.230Z,8.30
2022-10-13T10:05:26.854Z,6.57
2022-10-13T10:08:33.300Z,7.82
2022-10-13T10:11:03.237Z,8.30
2022-10-13T10:13:29.772Z,7.22
2022-10-13T10:16:05.790Z,7.60
2022-10-13T10:18:55.012Z,7.15
2022-10-13T10:21:34.728Z,6.47
2022-10-13T10:24:16.729Z,6.28
2022-10-13T10:26:55.218Z,6.25
2022-10-13T10:29:43.134Z,7.72
2022-10-13T10:32:31.086Z,7.18
2022-10-13T10:35:38.233Z,6.65
2022-10-13T10:38:13.880Z,7.47
2022-10-13T10:43:28.460Z,6.25
2022-10-13T10:45:58.304Z,7.43
2022-10-13T10:48:39.326Z,6.60
2022-10-13T10:51:08.642Z,6.43
2022-10-13T10:53:58.378Z,7.60
2022-10-13T10:56:31.879Z,6.35
2022-10-13T10:59:24.777Z,7.55
2022-10-13T11:02:06.545Z,6.63
2022-10-13T11:04:43.451Z,5.78
2022-10-13T11:07:15.004Z,6.70
2022-10-13T11:09:41.516Z,6.57
2022-10-13T11:12:20.429Z,6.30
2022-10-13T11:15:01.709Z,5.82
2022-10-13T11:17:37.009Z,5.80
2022-10-13T11:20:21.978Z,5.70
2022-10-13T11:23:14.608Z,5.25
2022-10-13T11:25:47.904Z,5.55
2022-10-13T11:28:23.324Z,4.88
2022-10-13T11:30:57.661Z,4.90
2022-10-13T11:33:39.257Z,4.78
2022-10-13T11:36:47.566Z,4.80
2022-10-13T11:39:26.210Z,4.65
2022-10-13T11:41:55.250Z,5.13
2022-10-13T11:44:32.607Z,4.53
2022-10-13T11:47:21.357Z,3.90
2022-10-13T11:50:18.753Z,5.00
2022-10-13T11:53:20.651Z,4.75
2022-10-13T11:55:56.863Z,4.95
2022-10-13T11:58:26.233Z,4.28
2022-10-13T12:00:58.522Z,4.55
2022-10-13T12:03:34.133Z,4.45
2022-10-13T12:06:03.672Z,4.25
2022-10-13T12:08:33.510Z,4.15
2022-10-13T12:11:01.436Z,4.82
2022-10-13T12:13:30.655Z,3.75
2022-10-13T12:16:05.684Z,4.35
2022-10-13T12:18:36.138Z,4.43
2022-10-13T12:21:09.393Z,4.03
2022-10-13T12:23:36.395Z,3.67
2022-10-13T12:26:04.089Z,4.70
2022-10-13T12:28:43.210Z,4.07
2022-10-13T12:31:18.939Z,3.97
2022-10-13T12:33:55.557Z,3.70
2022-10-13T12:36:27.104Z,4.03
2022-10-13T12:38:58.109Z,4.07
2022-10-13T12:41:32.013Z,3.42
2022-10-13T12:44:01.206Z,3.38
2022-10-13T12:46:48.635Z,3.78
2022-10-13T12:49:36.096Z,3.85
2022-10-13T12:52:11.835Z,4.05
2022-10-13T12:54:46.327Z,3.25
2022-10-13T12:57:20.527Z,2.83
2022-10-13T12:59:47.801Z,3.47
2022-10-13T13:02:30.953Z,3.20
2022-10-13T13:04:57.780Z,3.42
2022-10-13T13:07:35.974Z,3.08
2022-10-13T13:10:14.753Z,3.33
2022-10-13T13:12:41.672Z,3.72
2022-10-13T13:15:25.574Z,3.05
2022-10-13T13:17:58.338Z,3.60
2022-10-13T13:20:31.889Z,2.83
2022-10-13T13:22:58.655Z,3.40
2022-10-13T13:25:26.200Z,3.60
2022-10-13T13:27:53.340Z,4.25
2022-10-13T13:30:22.428Z,3.08
2022-10-13T13:32:49.820Z,3.72
2022-10-13T13:35:16.660Z,3.83
2022-10-13T13:37:47.855Z,3.40
2022-10-13T13:40:23.175Z,3.15
2022-10-13T13:42:49.964Z,3.80
2022-10-13T13:45:18.492Z,3.47
2022-10-13T13:47:45.120Z,3.45
2022-10-13T13:50:17.289Z,3.47
2022-10-13T13:52:47.751Z,2.92
2022-10-13T13:55:14.916Z,3.42
2022-10-13T13:57:42.690Z,3.30
2022-10-13T14:00:11.983Z,3.60
2022-10-13T14:02:39.123Z,4.50
2022-10-13T14:05:06.116Z,4.07
2022-10-13T14:07:32.607Z,4.13
2022-10-13T14:10:01.909Z,3.72
2022-10-13T14:12:30.437Z,4.10
2022-10-13T14:14:57.041Z,4.05
2022-10-13T14:17:23.516Z,4.20
2022-10-13T14:19:50.093Z,4.00
2022-10-13T14:22:16.724Z,4.13
2022-10-13T14:24:43.241Z,3.70
2022-10-13T14:27:10.439Z,5.33
2022-10-13T14:29:36.957Z,3.75
2022-10-13T14:32:03.646Z,4.32
2022-10-13T14:34:30.355Z,3.67
2022-10-13T14:36:56.861Z,3.85
2022-10-13T14:39:23.388Z,4.20
2022-10-13T14:41:49.975Z,3.35
2022-10-13T14:44:16.647Z,3.00
2022-10-13T14:46:44.819Z,3.50
2022-10-13T14:49:11.869Z,2.83
2022-10-13T14:51:42.806Z,3.80
2022-10-13T14:54:09.314Z,3.30
2022-10-13T14:56:36.074Z,2.88
2022-10-13T14:59:05.287Z,3.22
2022-10-13T15:01:38.153Z,2.90
2022-10-13T15:04:04.894Z,3.15
2022-10-13T15:06:32.266Z,3.10
2022-10-13T15:08:58.812Z,3.00
2022-10-13T15:11:26.534Z,3.30
2022-10-13T15:13:53.362Z,2.53
2022-10-13T15:16:22.732Z,3.38
2022-10-13T15:18:49.775Z,3.13
2022-10-13T15:21:16.785Z,3.05
2022-10-13T15:23:44.727Z,2.65
2022-10-13T15:26:12.947Z,2.63
2022-10-13T15:28:42.171Z,2.83
2022-10-13T15:31:10.775Z,3.53
2022-10-13T15:33:37.313Z,2.72
2022-10-13T15:36:04.131Z,3.45
2022-10-13T15:38:31.027Z,3.15
2022-10-13T15:41:00.918Z,2.88
2022-10-13T15:43:27.598Z,2.90
2022-10-13T15:45:57.308Z,3.05
2022-10-13T15:48:23.775Z,3.30
2022-10-13T15:50:50.524Z,2.95
2022-10-13T15:53:17.908Z,3.00
2022-10-13T15:55:44.421Z,3.00
2022-10-13T15:58:13.707Z,2.88
2022-10-13T16:00:41.293Z,4.00
2022-10-13T16:03:12.287Z,5.15
2022-10-13T16:05:41.894Z,3.50
2022-10-13T16:08:08.454Z,4.53
2022-10-13T16:10:34.990Z,4.65
2022-10-13T16:13:01.605Z,3.83
2022-10-13T16:15:28.093Z,4.47
2022-10-13T16:17:54.547Z,3.80
2022-10-13T16:20:21.158Z,4.13
2022-10-13T16:22:47.648Z,4.30
2022-10-13T16:25:14.361Z,3.20
2022-10-13T16:27:44.366Z,4.22
2022-10-13T16:30:11.877Z,4.32
2022-10-13T16:32:39.738Z,4.43
2022-10-13T16:35:07.229Z,4.38
2022-10-13T16:37:34.007Z,4.38
2022-10-13T16:40:00.464Z,4.90
2022-10-13T16:42:27.098Z,3.63
2022-10-13T16:44:53.608Z,4.07
2022-10-13T16:47:20.489Z,5.28
2022-10-13T16:49:47.336Z,6.95
2022-10-13T16:52:14.574Z,5.67
2022-10-13T16:54:43.655Z,5.68
2022-10-13T16:57:10.210Z,4.18
2022-10-13T16:59:36.736Z,3.50
2022-10-13T17:02:03.270Z,3.53
2022-10-13T17:04:30.960Z,4.00
2022-10-13T17:06:57.569Z,4.30
2022-10-13T17:09:24.138Z,3.70
2022-10-13T17:11:50.677Z,4.03
2022-10-13T17:14:17.197Z,3.25
2022-10-13T17:16:43.690Z,4.53
2022-10-13T17:19:10.171Z,3.60
2022-10-13T17:21:37.070Z,4.15
2022-10-13T17:24:05.553Z,3.42
2022-10-13T17:26:33.099Z,3.70
2022-10-13T17:28:59.722Z,3.83
2022-10-13T17:31:26.260Z,4.53
2022-10-13T17:33:53.416Z,4.55
2022-10-13T17:36:25.310Z,4.15
2022-10-13T17:38:53.981Z,3.90
2022-10-13T17:41:20.679Z,3.85
2022-10-13T17:43:49.509Z,3.67
2022-10-13T17:46:36.299Z,3.90
2022-10-13T17:51:30.653Z,3.05
2022-10-13T17:53:59.127Z,3.45
2022-10-13T17:56:26.521Z,3.45
2022-10-13T17:58:53.143Z,3.22
2022-10-13T18:01:25.267Z,3.30
2022-10-13T18:03:57.449Z,4.03
2022-10-13T18:06:37.670Z,4.00
2022-10-13T18:09:09.883Z,3.90
2022-10-13T18:11:36.979Z,5.13
2022-10-13T18:14:03.970Z,4.13
2022-10-13T18:16:30.521Z,6.15
2022-10-13T18:18:57.072Z,6.35
2022-10-13T18:21:24.401Z,5.00
2022-10-13T18:23:53.151Z,4.45
2022-10-13T18:28:48.199Z,3.67
2022-10-13T18:31:31.415Z,3.70
2022-10-13T18:34:11.426Z,3.90
2022-10-13T18:36:43.834Z,3.80
2022-10-13T18:39:19.308Z,3.28
2022-10-13T18:41:48.492Z,4.25
2022-10-13T18:44:15.129Z,4.22
2022-10-13T18:46:42.069Z,3.70
2022-10-13T18:49:11.967Z,4.30
2022-10-13T18:51:38.778Z,4.18
2022-10-13T18:54:06.284Z,4.22
2022-10-13T18:56:33.659Z,4.97
2022-10-13T18:59:01.399Z,4.85
2022-10-13T19:01:32.747Z,4.03
2022-10-13T19:03:59.575Z,4.43
2022-10-13T19:06:27.777Z,4.70
2022-10-13T19:08:59.633Z,4.40
2022-10-13T19:11:26.978Z,4.85
2022-10-13T19:13:54.137Z,4.27
2022-10-13T19:16:23.985Z,4.10
2022-10-13T19:18:51.304Z,4.88
2022-10-13T19:21:19.481Z,4.53
2022-10-13T19:26:24.704Z,4.18
2022-10-13T19:28:56.935Z,3.90
2022-10-13T19:31:26.109Z,4.60
2022-10-13T19:33:53.277Z,4.45
2022-10-13T19:36:21.799Z,5.03
2022-10-13T19:38:49.128Z,4.93
2022-10-13T19:41:16.175Z,4.35
2022-10-13T19:43:42.689Z,5.05
2022-10-13T19:46:09.913Z,4.55
2022-10-13T19:48:36.592Z,4.70
2022-10-13T19:51:09.826Z,4.82
2022-10-13T19:53:37.331Z,5.10
2022-10-13T19:56:04.214Z,6.00
2022-10-13T19:58:30.773Z,5.13
2022-10-13T20:01:04.549Z,4.50
2022-10-13T20:03:31.141Z,5.32
2022-10-13T20:05:57.743Z,5.93
2022-10-13T20:08:24.335Z,5.18
2022-10-13T20:10:50.826Z,4.93
2022-10-13T20:13:17.385Z,5.78
2022-10-13T20:15:47.690Z,4.90
2022-10-13T20:18:14.258Z,5.18
2022-10-13T20:20:41.203Z,4.53
2022-10-13T20:23:08.850Z,4.28
2022-10-13T20:25:38.577Z,6.03
2022-10-13T20:28:05.950Z,4.65
2022-10-13T20:30:33.140Z,4.37
2022-10-13T20:32:59.916Z,4.30
2022-10-13T20:35:27.567Z,5.03
2022-10-13T20:37:54.474Z,5.50
2022-10-13T20:40:21.281Z,5.43
2022-10-13T20:42:51.709Z,4.35
2022-10-13T20:45:20.223Z,4.53
2022-10-13T20:47:47.993Z,5.68
2022-10-13T20:50:14.917Z,4.82
2022-10-13T20:52:41.672Z,4.80
2022-10-13T20:55:08.651Z,4.40
2022-10-13T20:57:36.815Z,4.70
2022-10-13T21:00:04.884Z,4.95
2022-10-13T21:02:31.624Z,4.72
2022-10-13T21:04:58.080Z,5.55
2022-10-13T21:07:24.572Z,4.30
2022-10-13T21:09:53.865Z,4.68
2022-10-13T21:12:21.284Z,4.88
2022-10-13T21:14:47.787Z,4.68
2022-10-13T21:17:14.285Z,18.92
2022-10-13T21:19:40.803Z,19.52
2022-10-13T21:22:07.302Z,12.50
2022-10-13T21:24:33.871Z,11.23
2022-10-13T21:27:00.361Z,15.15
2022-10-13T21:29:26.984Z,12.57
2022-10-13T21:31:53.524Z,11.15
2022-10-13T21:34:20.075Z,10.13
2022-10-13T21:36:46.692Z,10.55
2022-10-13T21:39:14.567Z,10.73
2022-10-13T21:41:41.068Z,6.75
2022-10-13T21:44:07.573Z,8.57
2022-10-13T21:46:34.795Z,11.38
2022-10-13T21:49:04.134Z,14.63
2022-10-13T21:51:33.042Z,13.80
2022-10-13T21:54:02.675Z,9.43
2022-10-13T21:56:31.038Z,6.45
2022-10-13T21:58:59.512Z,6.40
2022-10-13T22:01:26.659Z,5.07
2022-10-13T22:03:56.471Z,5.95
2022-10-13T22:06:26.720Z,4.43
2022-10-13T22:08:54.797Z,5.85
2022-10-13T22:11:23.047Z,5.43
2022-10-13T22:13:49.589Z,6.25
2022-10-13T22:16:25.471Z,5.20
2022-10-13T22:18:53.627Z,5.38
2022-10-13T22:23:48.308Z,4.03
2022-10-13T22:26:16.623Z,6.22
2022-10-13T22:28:45.577Z,5.70
2022-10-13T22:31:13.333Z,6.55
2022-10-13T22:33:41.738Z,5.78
2022-10-13T22:36:17.803Z,4.65
2022-10-13T22:38:45.731Z,4.70
2022-10-13T22:41:13.461Z,4.30
2022-10-13T22:43:40.822Z,3.55
2022-10-13T22:46:15.678Z,4.65
2022-10-13T22:48:42.188Z,4.88
2022-10-13T22:51:10.421Z,4.90
2022-10-13T22:53:37.293Z,5.18
2022-10-13T22:56:12.117Z,4.40
2022-10-13T22:58:38.597Z,3.97
2022-10-13T23:01:06.740Z,4.65
2022-10-13T23:06:01.570Z,4.20
2022-10-13T23:08:28.182Z,3.55
2022-10-13T23:10:54.870Z,3.78
2022-10-13T23:13:21.343Z,3.17
2022-10-13T23:15:48.619Z,4.15
2022-10-13T23:18:15.209Z,4.22
2022-10-13T23:20:42.502Z,3.42
2022-10-13T23:23:09.626Z,3.80
2022-10-13T23:25:37.473Z,3.40
2022-10-13T23:28:04.717Z,3.22
2022-10-13T23:30:31.279Z,2.90
2022-10-13T23:32:57.775Z,4.03
2022-10-13T23:35:24.307Z,3.10
2022-10-13T23:37:52.498Z,3.00
2022-10-13T23:42:45.599Z,2.83
2022-10-13T23:45:12.185Z,2.70
2022-10-13T23:47:38.663Z,2.63
2022-10-13T23:50:05.748Z,2.45
2022-10-13T23:52:32.289Z,2.47
2022-10-13T23:54:58.740Z,3.45
2022-10-13T23:57:29.850Z,3.10
